Jamaica, Iowa
Current Conditions -  °F | °C
As of 4:15 PM on Thursday 18 Dec 2014 (Local Time) from KPRO Reporting Station
Overcast Overcast  
Wind Chill: 29°   Ceiling: 3900
Heat Index: 29°   Visibility: 10mi
Dew Point: 24°   Wind: 0mph
Humidity: 80%   Direction: NA
Pressure: 30.23"   Gusts: NA
Location:  41.85°N, 94.31°W
Report Text: KPRO 182215Z AUTO 00000KT 10SM OVC039 M02/M05 A3023 RMK AO2 T10161047
Loading
Personal Weather Stations






























Interactive Weather Map New forecast layout! Learn more

10-Day Weather Forecast

Advertisements
Track Severe Weather on mobile